sensor_id;sensor_type;location;lat;lon;timestamp;temperature;humidity
27266;DHT22;14766;51.380;13.762;2023-09-19T00:00:45;22.90;59.80
27266;DHT22;14766;51.380;13.762;2023-09-19T00:03:14;22.80;59.70
27266;DHT22;14766;51.380;13.762;2023-09-19T00:05:42;22.80;59.80
27266;DHT22;14766;51.380;13.762;2023-09-19T00:08:17;22.70;59.70
27266;DHT22;14766;51.380;13.762;2023-09-19T00:10:49;22.70;59.70
27266;DHT22;14766;51.380;13.762;2023-09-19T00:13:16;22.70;59.50
27266;DHT22;14766;51.380;13.762;2023-09-19T00:15:45;22.70;59.30
27266;DHT22;14766;51.380;13.762;2023-09-19T00:18:18;22.70;59.40
27266;DHT22;14766;51.380;13.762;2023-09-19T00:20:50;22.60;59.40
27266;DHT22;14766;51.380;13.762;2023-09-19T00:23:19;22.60;59.60
27266;DHT22;14766;51.380;13.762;2023-09-19T00:25:47;22.60;59.60
27266;DHT22;14766;51.380;13.762;2023-09-19T00:28:15;22.60;59.60
27266;DHT22;14766;51.380;13.762;2023-09-19T00:30:43;22.70;59.60
27266;DHT22;14766;51.380;13.762;2023-09-19T00:33:12;22.70;59.50
27266;DHT22;14766;51.380;13.762;2023-09-19T00:35:51;22.70;59.70
27266;DHT22;14766;51.380;13.762;2023-09-19T00:38:19;22.70;59.70
27266;DHT22;14766;51.380;13.762;2023-09-19T00:40:49;22.70;59.70
27266;DHT22;14766;51.380;13.762;2023-09-19T00:43:18;22.70;59.70
27266;DHT22;14766;51.380;13.762;2023-09-19T00:45:48;22.70;59.70
27266;DHT22;14766;51.380;13.762;2023-09-19T00:48:21;22.60;59.60
27266;DHT22;14766;51.380;13.762;2023-09-19T00:50:49;22.60;59.70
27266;DHT22;14766;51.380;13.762;2023-09-19T00:53:20;22.60;59.60
27266;DHT22;14766;51.380;13.762;2023-09-19T00:55:51;22.60;59.60
27266;DHT22;14766;51.380;13.762;2023-09-19T00:58:19;22.60;59.70
27266;DHT22;14766;51.380;13.762;2023-09-19T01:00:51;22.60;59.90
27266;DHT22;14766;51.380;13.762;2023-09-19T01:03:18;22.50;59.80
27266;DHT22;14766;51.380;13.762;2023-09-19T01:05:45;22.50;59.90
27266;DHT22;14766;51.380;13.762;2023-09-19T01:08:13;22.50;60.00
27266;DHT22;14766;51.380;13.762;2023-09-19T01:16:20;22.40;60.00
27266;DHT22;14766;51.380;13.762;2023-09-19T01:30:21;22.30;60.20
27266;DHT22;14766;51.380;13.762;2023-09-19T01:32:51;22.30;60.20
27266;DHT22;14766;51.380;13.762;2023-09-19T01:35:19;22.30;60.20
27266;DHT22;14766;51.380;13.762;2023-09-19T01:37:46;22.30;60.30
27266;DHT22;14766;51.380;13.762;2023-09-19T01:40:17;22.20;60.30
27266;DHT22;14766;51.380;13.762;2023-09-19T01:43:03;22.20;60.50
27266;DHT22;14766;51.380;13.762;2023-09-19T01:51:05;22.20;60.20
27266;DHT22;14766;51.380;13.762;2023-09-19T01:53:53;22.20;60.60
27266;DHT22;14766;51.380;13.762;2023-09-19T01:56:52;22.20;60.50
27266;DHT22;14766;51.380;13.762;2023-09-19T01:59:27;22.20;60.50
27266;DHT22;14766;51.380;13.762;2023-09-19T02:01:55;22.20;60.30
27266;DHT22;14766;51.380;13.762;2023-09-19T02:04:23;22.20;60.50
27266;DHT22;14766;51.380;13.762;2023-09-19T02:06:50;22.20;60.60
27266;DHT22;14766;51.380;13.762;2023-09-19T02:09:20;22.20;60.60
27266;DHT22;14766;51.380;13.762;2023-09-19T02:11:49;22.20;60.50
27266;DHT22;14766;51.380;13.762;2023-09-19T02:14:16;22.20;60.50
27266;DHT22;14766;51.380;13.762;2023-09-19T02:16:44;22.20;60.60
27266;DHT22;14766;51.380;13.762;2023-09-19T02:19:11;22.20;60.50
27266;DHT22;14766;51.380;13.762;2023-09-19T02:21:40;22.20;60.70
27266;DHT22;14766;51.380;13.762;2023-09-19T02:24:07;22.20;60.70
27266;DHT22;14766;51.380;13.762;2023-09-19T02:26:35;22.20;60.60
27266;DHT22;14766;51.380;13.762;2023-09-19T02:29:05;22.20;60.70
27266;DHT22;14766;51.380;13.762;2023-09-19T02:31:32;22.20;60.60
27266;DHT22;14766;51.380;13.762;2023-09-19T02:34:02;22.20;60.70
27266;DHT22;14766;51.380;13.762;2023-09-19T02:36:31;22.20;60.70
27266;DHT22;14766;51.380;13.762;2023-09-19T02:38:59;22.20;60.60
27266;DHT22;14766;51.380;13.762;2023-09-19T02:41:28;22.20;60.70
27266;DHT22;14766;51.380;13.762;2023-09-19T02:43:56;22.20;60.80
27266;DHT22;14766;51.380;13.762;2023-09-19T02:46:23;22.20;60.90
27266;DHT22;14766;51.380;13.762;2023-09-19T02:48:50;22.20;60.80
27266;DHT22;14766;51.380;13.762;2023-09-19T02:51:17;22.20;60.90
27266;DHT22;14766;51.380;13.762;2023-09-19T02:53:44;22.20;60.80
27266;DHT22;14766;51.380;13.762;2023-09-19T02:56:14;22.20;60.80
27266;DHT22;14766;51.380;13.762;2023-09-19T02:58:42;22.10;60.90
27266;DHT22;14766;51.380;13.762;2023-09-19T03:01:10;22.20;61.10
27266;DHT22;14766;51.380;13.762;2023-09-19T03:03:43;22.10;61.10
27266;DHT22;14766;51.380;13.762;2023-09-19T03:06:13;22.10;61.10
27266;DHT22;14766;51.380;13.762;2023-09-19T03:08:40;22.10;61.10
27266;DHT22;14766;51.380;13.762;2023-09-19T03:11:10;22.10;61.00
27266;DHT22;14766;51.380;13.762;2023-09-19T03:13:40;22.10;61.10
27266;DHT22;14766;51.380;13.762;2023-09-19T03:16:09;22.10;61.00
27266;DHT22;14766;51.380;13.762;2023-09-19T03:18:37;22.10;61.00
27266;DHT22;14766;51.380;13.762;2023-09-19T03:21:05;22.10;60.90
27266;DHT22;14766;51.380;13.762;2023-09-19T03:23:34;22.10;61.80
27266;DHT22;14766;51.380;13.762;2023-09-19T03:26:03;22.10;60.90
27266;DHT22;14766;51.380;13.762;2023-09-19T03:28:33;22.20;60.80
27266;DHT22;14766;51.380;13.762;2023-09-19T03:31:03;22.10;60.80
27266;DHT22;14766;51.380;13.762;2023-09-19T03:33:33;22.10;60.70
27266;DHT22;14766;51.380;13.762;2023-09-19T03:36:02;22.10;60.80
27266;DHT22;14766;51.380;13.762;2023-09-19T03:38:34;22.10;60.90
27266;DHT22;14766;51.380;13.762;2023-09-19T03:41:02;22.10;60.90
27266;DHT22;14766;51.380;13.762;2023-09-19T03:43:31;22.10;60.90
27266;DHT22;14766;51.380;13.762;2023-09-19T03:46:01;22.00;60.90
27266;DHT22;14766;51.380;13.762;2023-09-19T03:48:32;22.00;61.00
27266;DHT22;14766;51.380;13.762;2023-09-19T03:50:59;22.00;61.10
27266;DHT22;14766;51.380;13.762;2023-09-19T03:53:27;22.00;61.00
27266;DHT22;14766;51.380;13.762;2023-09-19T03:55:55;22.00;61.00
27266;DHT22;14766;51.380;13.762;2023-09-19T03:58:22;22.00;61.00
27266;DHT22;14766;51.380;13.762;2023-09-19T04:00:49;22.00;60.90
27266;DHT22;14766;51.380;13.762;2023-09-19T04:03:17;22.00;60.90
27266;DHT22;14766;51.380;13.762;2023-09-19T04:05:48;21.90;60.80
27266;DHT22;14766;51.380;13.762;2023-09-19T04:08:17;21.90;60.80
27266;DHT22;14766;51.380;13.762;2023-09-19T04:10:44;22.00;60.70
27266;DHT22;14766;51.380;13.762;2023-09-19T04:13:12;22.00;60.80
27266;DHT22;14766;51.380;13.762;2023-09-19T04:15:40;22.00;60.70
27266;DHT22;14766;51.380;13.762;2023-09-19T04:18:07;22.00;60.50
27266;DHT22;14766;51.380;13.762;2023-09-19T04:20:35;22.00;60.50
27266;DHT22;14766;51.380;13.762;2023-09-19T04:23:02;22.00;60.40
27266;DHT22;14766;51.380;13.762;2023-09-19T04:25:29;22.00;60.50
27266;DHT22;14766;51.380;13.762;2023-09-19T04:27:56;22.00;60.40
27266;DHT22;14766;51.380;13.762;2023-09-19T04:30:25;22.00;60.50
27266;DHT22;14766;51.380;13.762;2023-09-19T04:32:53;21.90;61.30
27266;DHT22;14766;51.380;13.762;2023-09-19T04:35:20;21.90;60.50
27266;DHT22;14766;51.380;13.762;2023-09-19T04:37:47;21.90;60.60
27266;DHT22;14766;51.380;13.762;2023-09-19T04:40:15;21.80;60.60
27266;DHT22;14766;51.380;13.762;2023-09-19T04:42:45;21.80;60.70
27266;DHT22;14766;51.380;13.762;2023-09-19T04:45:12;21.80;60.70
27266;DHT22;14766;51.380;13.762;2023-09-19T04:47:40;21.80;60.80
27266;DHT22;14766;51.380;13.762;2023-09-19T04:50:08;21.80;60.90
27266;DHT22;14766;51.380;13.762;2023-09-19T04:52:40;21.70;60.90
27266;DHT22;14766;51.380;13.762;2023-09-19T04:55:13;21.70;60.80
27266;DHT22;14766;51.380;13.762;2023-09-19T04:57:48;21.70;60.80
27266;DHT22;14766;51.380;13.762;2023-09-19T05:00:20;21.70;60.80
27266;DHT22;14766;51.380;13.762;2023-09-19T05:02:52;21.70;60.90
27266;DHT22;14766;51.380;13.762;2023-09-19T05:05:19;21.70;61.00
27266;DHT22;14766;51.380;13.762;2023-09-19T05:07:47;21.60;61.10
27266;DHT22;14766;51.380;13.762;2023-09-19T05:10:14;21.60;61.20
27266;DHT22;14766;51.380;13.762;2023-09-19T05:12:42;21.60;61.20
27266;DHT22;14766;51.380;13.762;2023-09-19T05:15:13;21.50;61.30
27266;DHT22;14766;51.380;13.762;2023-09-19T05:17:48;21.50;61.40
27266;DHT22;14766;51.380;13.762;2023-09-19T05:20:21;21.50;61.50
27266;DHT22;14766;51.380;13.762;2023-09-19T05:23:01;21.40;61.50
27266;DHT22;14766;51.380;13.762;2023-09-19T05:25:31;21.40;61.60
27266;DHT22;14766;51.380;13.762;2023-09-19T05:27:59;21.40;61.70
27266;DHT22;14766;51.380;13.762;2023-09-19T05:30:27;21.40;61.90
27266;DHT22;14766;51.380;13.762;2023-09-19T05:32:56;21.40;61.80
27266;DHT22;14766;51.380;13.762;2023-09-19T05:35:24;21.40;61.80
27266;DHT22;14766;51.380;13.762;2023-09-19T05:37:53;21.40;61.80
27266;DHT22;14766;51.380;13.762;2023-09-19T05:40:21;21.40;61.80
27266;DHT22;14766;51.380;13.762;2023-09-19T05:42:49;21.30;61.80
27266;DHT22;14766;51.380;13.762;2023-09-19T05:45:17;21.30;61.90
27266;DHT22;14766;51.380;13.762;2023-09-19T05:47:50;21.30;62.00
27266;DHT22;14766;51.380;13.762;2023-09-19T05:50:18;21.30;62.10
27266;DHT22;14766;51.380;13.762;2023-09-19T05:52:53;21.30;62.10
27266;DHT22;14766;51.380;13.762;2023-09-19T05:55:23;21.30;62.10
27266;DHT22;14766;51.380;13.762;2023-09-19T05:57:52;21.30;62.10
27266;DHT22;14766;51.380;13.762;2023-09-19T06:00:20;21.30;62.00
27266;DHT22;14766;51.380;13.762;2023-09-19T06:02:54;21.40;62.00
27266;DHT22;14766;51.380;13.762;2023-09-19T06:05:23;21.40;61.80
27266;DHT22;14766;51.380;13.762;2023-09-19T06:07:51;21.40;61.90
27266;DHT22;14766;51.380;13.762;2023-09-19T06:10:20;21.40;61.90
27266;DHT22;14766;51.380;13.762;2023-09-19T06:12:51;21.40;61.90
27266;DHT22;14766;51.380;13.762;2023-09-19T06:15:20;21.40;62.00
27266;DHT22;14766;51.380;13.762;2023-09-19T06:17:54;21.40;61.90
27266;DHT22;14766;51.380;13.762;2023-09-19T06:20:26;21.40;61.90
27266;DHT22;14766;51.380;13.762;2023-09-19T06:22:54;21.40;61.90
27266;DHT22;14766;51.380;13.762;2023-09-19T06:25:22;21.50;62.80
27266;DHT22;14766;51.380;13.762;2023-09-19T06:27:51;21.50;61.70
27266;DHT22;14766;51.380;13.762;2023-09-19T06:30:22;21.60;61.40
27266;DHT22;14766;51.380;13.762;2023-09-19T06:32:59;21.60;61.20
27266;DHT22;14766;51.380;13.762;2023-09-19T06:39:57;21.70;60.80
27266;DHT22;14766;51.380;13.762;2023-09-19T06:42:27;21.80;60.30
27266;DHT22;14766;51.380;13.762;2023-09-19T06:44:55;21.90;60.00
27266;DHT22;14766;51.380;13.762;2023-09-19T06:47:23;22.00;59.80
27266;DHT22;14766;51.380;13.762;2023-09-19T06:49:52;22.10;59.30
27266;DHT22;14766;51.380;13.762;2023-09-19T06:52:20;22.20;59.10
27266;DHT22;14766;51.380;13.762;2023-09-19T06:54:48;22.30;58.80
27266;DHT22;14766;51.380;13.762;2023-09-19T06:57:17;22.40;58.60
27266;DHT22;14766;51.380;13.762;2023-09-19T06:59:45;22.50;58.40
27266;DHT22;14766;51.380;13.762;2023-09-19T07:02:12;22.70;57.90
27266;DHT22;14766;51.380;13.762;2023-09-19T07:04:40;22.80;57.40
27266;DHT22;14766;51.380;13.762;2023-09-19T07:07:08;23.00;57.20
27266;DHT22;14766;51.380;13.762;2023-09-19T07:09:40;23.10;57.30
27266;DHT22;14766;51.380;13.762;2023-09-19T07:12:09;23.40;57.20
27266;DHT22;14766;51.380;13.762;2023-09-19T07:14:36;23.70;56.80
27266;DHT22;14766;51.380;13.762;2023-09-19T07:17:04;24.00;56.70
27266;DHT22;14766;51.380;13.762;2023-09-19T07:19:33;24.40;55.00
27266;DHT22;14766;51.380;13.762;2023-09-19T07:22:01;24.80;54.40
27266;DHT22;14766;51.380;13.762;2023-09-19T07:24:30;25.10;54.10
27266;DHT22;14766;51.380;13.762;2023-09-19T07:26:58;25.40;52.80
27266;DHT22;14766;51.380;13.762;2023-09-19T07:29:27;25.70;49.90
27266;DHT22;14766;51.380;13.762;2023-09-19T07:31:55;25.90;49.80
27266;DHT22;14766;51.380;13.762;2023-09-19T07:34:22;26.10;49.70
27266;DHT22;14766;51.380;13.762;2023-09-19T07:36:51;26.20;49.70
27266;DHT22;14766;51.380;13.762;2023-09-19T07:39:18;26.50;48.70
27266;DHT22;14766;51.380;13.762;2023-09-19T07:41:49;26.70;48.60
27266;DHT22;14766;51.380;13.762;2023-09-19T07:44:17;26.90;47.00
27266;DHT22;14766;51.380;13.762;2023-09-19T07:46:46;27.10;46.50
27266;DHT22;14766;51.380;13.762;2023-09-19T07:49:16;27.30;46.50
27266;DHT22;14766;51.380;13.762;2023-09-19T07:51:45;27.50;45.80
27266;DHT22;14766;51.380;13.762;2023-09-19T07:54:13;27.60;45.50
27266;DHT22;14766;51.380;13.762;2023-09-19T07:56:41;27.80;45.60
27266;DHT22;14766;51.380;13.762;2023-09-19T07:59:10;28.10;44.10
27266;DHT22;14766;51.380;13.762;2023-09-19T08:01:38;28.30;44.10
27266;DHT22;14766;51.380;13.762;2023-09-19T08:04:07;28.40;41.50
27266;DHT22;14766;51.380;13.762;2023-09-19T08:06:34;28.60;41.90
27266;DHT22;14766;51.380;13.762;2023-09-19T08:09:02;28.70;42.50
27266;DHT22;14766;51.380;13.762;2023-09-19T08:11:35;28.80;39.60
27266;DHT22;14766;51.380;13.762;2023-09-19T08:14:04;28.90;39.40
27266;DHT22;14766;51.380;13.762;2023-09-19T08:16:32;29.00;39.30
27266;DHT22;14766;51.380;13.762;2023-09-19T08:19:00;29.10;39.10
27266;DHT22;14766;51.380;13.762;2023-09-19T08:21:27;29.30;39.10
27266;DHT22;14766;51.380;13.762;2023-09-19T08:23:57;29.40;38.50
27266;DHT22;14766;51.380;13.762;2023-09-19T08:26:28;29.50;38.80
27266;DHT22;14766;51.380;13.762;2023-09-19T08:28:55;29.70;37.10
27266;DHT22;14766;51.380;13.762;2023-09-19T08:31:23;29.90;36.80
27266;DHT22;14766;51.380;13.762;2023-09-19T08:33:50;30.10;36.00
27266;DHT22;14766;51.380;13.762;2023-09-19T08:36:44;30.20;35.10
27266;DHT22;14766;51.380;13.762;2023-09-19T08:39:18;30.40;35.40
27266;DHT22;14766;51.380;13.762;2023-09-19T08:41:46;30.60;35.00
27266;DHT22;14766;51.380;13.762;2023-09-19T08:44:13;30.70;35.70
27266;DHT22;14766;51.380;13.762;2023-09-19T08:46:41;31.00;36.20
27266;DHT22;14766;51.380;13.762;2023-09-19T08:49:33;31.20;35.30
27266;DHT22;14766;51.380;13.762;2023-09-19T08:52:25;31.50;34.00
27266;DHT22;14766;51.380;13.762;2023-09-19T08:54:58;31.60;32.20
27266;DHT22;14766;51.380;13.762;2023-09-19T08:57:29;31.60;32.60
27266;DHT22;14766;51.380;13.762;2023-09-19T09:00:01;31.40;32.20
27266;DHT22;14766;51.380;13.762;2023-09-19T09:02:33;31.20;32.20
27266;DHT22;14766;51.380;13.762;2023-09-19T09:05:01;30.80;32.40
27266;DHT22;14766;51.380;13.762;2023-09-19T09:07:32;30.50;32.90
27266;DHT22;14766;51.380;13.762;2023-09-19T09:10:03;30.20;33.30
27266;DHT22;14766;51.380;13.762;2023-09-19T09:12:31;29.90;33.90
27266;DHT22;14766;51.380;13.762;2023-09-19T09:14:58;29.60;34.30
27266;DHT22;14766;51.380;13.762;2023-09-19T09:17:25;29.30;34.80
27266;DHT22;14766;51.380;13.762;2023-09-19T09:19:53;29.10;35.40
27266;DHT22;14766;51.380;13.762;2023-09-19T09:22:21;28.90;35.80
27266;DHT22;14766;51.380;13.762;2023-09-19T09:24:55;28.70;36.40
27266;DHT22;14766;51.380;13.762;2023-09-19T09:27:29;28.60;36.60
27266;DHT22;14766;51.380;13.762;2023-09-19T09:29:57;28.50;36.80
27266;DHT22;14766;51.380;13.762;2023-09-19T09:32:30;28.40;37.00
27266;DHT22;14766;51.380;13.762;2023-09-19T09:35:01;28.30;37.60
27266;DHT22;14766;51.380;13.762;2023-09-19T09:37:29;28.30;38.30
27266;DHT22;14766;51.380;13.762;2023-09-19T09:40:01;28.30;38.30
27266;DHT22;14766;51.380;13.762;2023-09-19T09:42:43;28.40;38.00
27266;DHT22;14766;51.380;13.762;2023-09-19T09:45:18;28.50;38.00
27266;DHT22;14766;51.380;13.762;2023-09-19T09:47:55;28.50;37.30
27266;DHT22;14766;51.380;13.762;2023-09-19T09:50:25;28.60;37.40
27266;DHT22;14766;51.380;13.762;2023-09-19T09:52:59;28.70;37.80
27266;DHT22;14766;51.380;13.762;2023-09-19T09:58:24;29.10;36.70
27266;DHT22;14766;51.380;13.762;2023-09-19T10:00:57;29.20;36.20
27266;DHT22;14766;51.380;13.762;2023-09-19T10:03:37;29.10;34.90
27266;DHT22;14766;51.380;13.762;2023-09-19T10:06:12;29.00;34.70
27266;DHT22;14766;51.380;13.762;2023-09-19T10:09:18;28.70;34.60
27266;DHT22;14766;51.380;13.762;2023-09-19T10:12:16;28.40;35.10
27266;DHT22;14766;51.380;13.762;2023-09-19T10:14:45;28.10;36.00
27266;DHT22;14766;51.380;13.762;2023-09-19T10:17:16;27.90;36.90
27266;DHT22;14766;51.380;13.762;2023-09-19T10:19:56;27.70;37.30
27266;DHT22;14766;51.380;13.762;2023-09-19T10:22:28;27.70;37.10
27266;DHT22;14766;51.380;13.762;2023-09-19T10:24:59;27.60;37.40
27266;DHT22;14766;51.380;13.762;2023-09-19T10:27:29;27.60;39.10
27266;DHT22;14766;51.380;13.762;2023-09-19T10:30:06;27.60;38.60
27266;DHT22;14766;51.380;13.762;2023-09-19T10:32:39;27.60;38.00
27266;DHT22;14766;51.380;13.762;2023-09-19T10:35:08;27.50;36.60
27266;DHT22;14766;51.380;13.762;2023-09-19T10:37:41;27.50;37.20
27266;DHT22;14766;51.380;13.762;2023-09-19T10:40:11;27.30;37.10
27266;DHT22;14766;51.380;13.762;2023-09-19T10:46:10;27.20;38.20
27266;DHT22;14766;51.380;13.762;2023-09-19T10:48:39;27.30;37.90
27266;DHT22;14766;51.380;13.762;2023-09-19T10:51:14;27.30;37.30
27266;DHT22;14766;51.380;13.762;2023-09-19T10:56:22;27.30;37.70
27266;DHT22;14766;51.380;13.762;2023-09-19T10:58:50;27.40;37.50
27266;DHT22;14766;51.380;13.762;2023-09-19T11:01:19;27.40;36.80
27266;DHT22;14766;51.380;13.762;2023-09-19T11:03:47;27.40;35.80
27266;DHT22;14766;51.380;13.762;2023-09-19T11:06:18;27.50;34.60
27266;DHT22;14766;51.380;13.762;2023-09-19T11:08:52;27.50;35.40
27266;DHT22;14766;51.380;13.762;2023-09-19T11:14:40;27.70;34.90
27266;DHT22;14766;51.380;13.762;2023-09-19T11:30:46;28.10;32.30
27266;DHT22;14766;51.380;13.762;2023-09-19T11:33:24;28.10;33.00
27266;DHT22;14766;51.380;13.762;2023-09-19T11:36:10;28.10;33.00
27266;DHT22;14766;51.380;13.762;2023-09-19T11:46:56;28.00;31.90
27266;DHT22;14766;51.380;13.762;2023-09-19T11:49:30;27.90;32.20
27266;DHT22;14766;51.380;13.762;2023-09-19T11:52:03;27.80;32.60
27266;DHT22;14766;51.380;13.762;2023-09-19T11:54:40;27.70;33.20
27266;DHT22;14766;51.380;13.762;2023-09-19T11:57:09;27.70;33.90
27266;DHT22;14766;51.380;13.762;2023-09-19T11:59:39;27.60;32.60
27266;DHT22;14766;51.380;13.762;2023-09-19T12:02:07;27.60;32.60
27266;DHT22;14766;51.380;13.762;2023-09-19T12:04:43;27.60;31.90
27266;DHT22;14766;51.380;13.762;2023-09-19T12:07:13;27.60;31.40
27266;DHT22;14766;51.380;13.762;2023-09-19T12:12:24;27.50;30.30
27266;DHT22;14766;51.380;13.762;2023-09-19T12:14:56;27.50;29.10
27266;DHT22;14766;51.380;13.762;2023-09-19T12:17:36;27.50;29.20
27266;DHT22;14766;51.380;13.762;2023-09-19T12:20:05;27.40;28.30
27266;DHT22;14766;51.380;13.762;2023-09-19T12:22:46;27.40;28.70
27266;DHT22;14766;51.380;13.762;2023-09-19T12:25:14;27.40;28.20
27266;DHT22;14766;51.380;13.762;2023-09-19T12:27:48;27.30;28.60
27266;DHT22;14766;51.380;13.762;2023-09-19T12:30:28;27.30;28.30
27266;DHT22;14766;51.380;13.762;2023-09-19T12:32:55;27.30;28.80
27266;DHT22;14766;51.380;13.762;2023-09-19T12:35:33;27.30;28.80
27266;DHT22;14766;51.380;13.762;2023-09-19T12:38:03;27.20;28.70
27266;DHT22;14766;51.380;13.762;2023-09-19T12:40:32;27.20;29.00
27266;DHT22;14766;51.380;13.762;2023-09-19T12:43:01;27.20;29.30
27266;DHT22;14766;51.380;13.762;2023-09-19T12:45:35;27.10;29.60
27266;DHT22;14766;51.380;13.762;2023-09-19T12:48:21;27.20;28.90
27266;DHT22;14766;51.380;13.762;2023-09-19T12:53:57;27.10;29.30
27266;DHT22;14766;51.380;13.762;2023-09-19T12:56:24;27.10;29.40
27266;DHT22;14766;51.380;13.762;2023-09-19T12:58:55;27.10;29.90
27266;DHT22;14766;51.380;13.762;2023-09-19T13:01:24;27.10;29.30
27266;DHT22;14766;51.380;13.762;2023-09-19T13:06:48;27.10;29.90
27266;DHT22;14766;51.380;13.762;2023-09-19T13:09:19;27.20;30.00
27266;DHT22;14766;51.380;13.762;2023-09-19T13:11:51;27.20;30.00
27266;DHT22;14766;51.380;13.762;2023-09-19T13:17:04;27.20;30.10
27266;DHT22;14766;51.380;13.762;2023-09-19T13:19:52;27.20;30.00
27266;DHT22;14766;51.380;13.762;2023-09-19T13:22:44;27.20;30.00
27266;DHT22;14766;51.380;13.762;2023-09-19T13:25:16;27.20;30.50
27266;DHT22;14766;51.380;13.762;2023-09-19T13:27:51;27.30;30.60
27266;DHT22;14766;51.380;13.762;2023-09-19T13:30:22;27.30;30.60
27266;DHT22;14766;51.380;13.762;2023-09-19T13:33:03;27.30;30.40
27266;DHT22;14766;51.380;13.762;2023-09-19T13:35:34;27.30;30.50
27266;DHT22;14766;51.380;13.762;2023-09-19T13:38:02;27.20;30.30
27266;DHT22;14766;51.380;13.762;2023-09-19T13:40:29;27.20;30.40
27266;DHT22;14766;51.380;13.762;2023-09-19T13:42:58;27.20;30.40
27266;DHT22;14766;51.380;13.762;2023-09-19T13:45:25;27.20;30.70
27266;DHT22;14766;51.380;13.762;2023-09-19T13:47:57;27.20;30.70
27266;DHT22;14766;51.380;13.762;2023-09-19T13:50:27;27.10;30.70
27266;DHT22;14766;51.380;13.762;2023-09-19T13:52:56;27.10;31.00
27266;DHT22;14766;51.380;13.762;2023-09-19T13:55:24;27.00;31.00
27266;DHT22;14766;51.380;13.762;2023-09-19T13:57:51;27.00;31.40
27266;DHT22;14766;51.380;13.762;2023-09-19T14:00:23;26.90;31.60
27266;DHT22;14766;51.380;13.762;2023-09-19T14:02:51;26.90;31.80
27266;DHT22;14766;51.380;13.762;2023-09-19T14:05:19;26.90;31.70
27266;DHT22;14766;51.380;13.762;2023-09-19T14:07:49;26.90;31.80
27266;DHT22;14766;51.380;13.762;2023-09-19T14:10:16;26.80;31.70
27266;DHT22;14766;51.380;13.762;2023-09-19T14:12:45;26.80;31.80
27266;DHT22;14766;51.380;13.762;2023-09-19T14:15:12;26.80;32.10
27266;DHT22;14766;51.380;13.762;2023-09-19T14:17:40;26.70;32.40
27266;DHT22;14766;51.380;13.762;2023-09-19T14:20:15;26.70;32.60
27266;DHT22;14766;51.380;13.762;2023-09-19T14:22:43;26.70;32.70
27266;DHT22;14766;51.380;13.762;2023-09-19T14:25:10;26.70;33.10
27266;DHT22;14766;51.380;13.762;2023-09-19T14:27:37;26.70;32.80
27266;DHT22;14766;51.380;13.762;2023-09-19T14:30:05;26.70;32.90
27266;DHT22;14766;51.380;13.762;2023-09-19T14:32:32;26.70;32.90
27266;DHT22;14766;51.380;13.762;2023-09-19T14:35:00;26.70;32.70
27266;DHT22;14766;51.380;13.762;2023-09-19T14:37:27;26.60;32.90
27266;DHT22;14766;51.380;13.762;2023-09-19T14:39:55;26.60;33.40
27266;DHT22;14766;51.380;13.762;2023-09-19T14:42:22;26.60;33.30
27266;DHT22;14766;51.380;13.762;2023-09-19T14:44:49;26.60;33.20
27266;DHT22;14766;51.380;13.762;2023-09-19T14:47:16;26.60;33.30
27266;DHT22;14766;51.380;13.762;2023-09-19T14:49:44;26.50;33.20
27266;DHT22;14766;51.380;13.762;2023-09-19T14:52:12;26.50;33.00
27266;DHT22;14766;51.380;13.762;2023-09-19T14:54:43;26.40;32.90
27266;DHT22;14766;51.380;13.762;2023-09-19T14:57:11;26.40;33.40
27266;DHT22;14766;51.380;13.762;2023-09-19T14:59:40;26.30;33.60
27266;DHT22;14766;51.380;13.762;2023-09-19T15:02:07;26.40;33.60
27266;DHT22;14766;51.380;13.762;2023-09-19T15:04:35;26.30;33.70
27266;DHT22;14766;51.380;13.762;2023-09-19T15:07:02;26.30;34.00
27266;DHT22;14766;51.380;13.762;2023-09-19T15:09:30;26.30;34.30
27266;DHT22;14766;51.380;13.762;2023-09-19T15:12:00;26.30;34.20
27266;DHT22;14766;51.380;13.762;2023-09-19T15:14:27;26.30;34.20
27266;DHT22;14766;51.380;13.762;2023-09-19T15:16:56;26.30;33.90
27266;DHT22;14766;51.380;13.762;2023-09-19T15:19:24;26.20;34.10
27266;DHT22;14766;51.380;13.762;2023-09-19T15:21:51;26.20;34.30
27266;DHT22;14766;51.380;13.762;2023-09-19T15:24:18;26.10;34.40
27266;DHT22;14766;51.380;13.762;2023-09-19T15:26:45;26.10;34.60
27266;DHT22;14766;51.380;13.762;2023-09-19T15:29:13;26.10;34.40
27266;DHT22;14766;51.380;13.762;2023-09-19T15:31:40;26.10;34.30
27266;DHT22;14766;51.380;13.762;2023-09-19T15:34:07;26.10;34.60
27266;DHT22;14766;51.380;13.762;2023-09-19T15:36:35;26.00;34.70
27266;DHT22;14766;51.380;13.762;2023-09-19T15:39:08;26.00;34.90
27266;DHT22;14766;51.380;13.762;2023-09-19T15:41:40;26.00;34.80
27266;DHT22;14766;51.380;13.762;2023-09-19T15:44:16;26.00;35.20
27266;DHT22;14766;51.380;13.762;2023-09-19T15:46:44;26.00;35.00
27266;DHT22;14766;51.380;13.762;2023-09-19T15:49:11;26.00;34.90
27266;DHT22;14766;51.380;13.762;2023-09-19T15:51:39;26.00;35.20
27266;DHT22;14766;51.380;13.762;2023-09-19T15:54:09;26.00;35.20
27266;DHT22;14766;51.380;13.762;2023-09-19T15:56:37;26.00;35.30
27266;DHT22;14766;51.380;13.762;2023-09-19T15:59:05;26.00;35.30
27266;DHT22;14766;51.380;13.762;2023-09-19T16:01:33;26.00;35.20
27266;DHT22;14766;51.380;13.762;2023-09-19T16:04:00;25.90;35.20
27266;DHT22;14766;51.380;13.762;2023-09-19T16:06:29;25.90;35.30
27266;DHT22;14766;51.380;13.762;2023-09-19T16:08:58;25.90;36.10
27266;DHT22;14766;51.380;13.762;2023-09-19T16:11:27;25.80;35.50
27266;DHT22;14766;51.380;13.762;2023-09-19T16:13:55;25.90;35.50
27266;DHT22;14766;51.380;13.762;2023-09-19T16:16:23;25.80;35.50
27266;DHT22;14766;51.380;13.762;2023-09-19T16:18:53;25.80;35.40
27266;DHT22;14766;51.380;13.762;2023-09-19T16:21:25;25.80;35.50
27266;DHT22;14766;51.380;13.762;2023-09-19T16:23:59;25.80;35.60
27266;DHT22;14766;51.380;13.762;2023-09-19T16:26:28;25.70;35.50
27266;DHT22;14766;51.380;13.762;2023-09-19T16:28:58;25.70;35.60
27266;DHT22;14766;51.380;13.762;2023-09-19T16:31:32;25.60;35.70
27266;DHT22;14766;51.380;13.762;2023-09-19T16:34:00;25.60;35.90
27266;DHT22;14766;51.380;13.762;2023-09-19T16:36:29;25.60;35.80
27266;DHT22;14766;51.380;13.762;2023-09-19T16:38:59;25.50;35.60
27266;DHT22;14766;51.380;13.762;2023-09-19T16:41:28;25.50;35.80
27266;DHT22;14766;51.380;13.762;2023-09-19T16:43:57;25.40;35.90
27266;DHT22;14766;51.380;13.762;2023-09-19T16:46:26;25.40;36.00